Time;durP1;ratioP1;P1;durP2;ratioP2;P2;SDS_P1;SDS_P2;PMS_P1;PMS_P2;Temp;Humidity;BMP_temperature;BMP_pressure;BME280_temperature;BME280_humidity;BME280_pressure;Samples;Min_cycle;Max_cycle;Signal;HPM_P1;HPM_P2
2022/06/06 00:00:08;;;;;;;5.38;3.08;;;;;;;;;;518579;28;1529;-83
2022/06/06 00:00:24;;;;;;;5.25;3.20;;;;;;;;;;519979;28;1797;-83
2022/06/06 00:00:40;;;;;;;4.88;3.05;;;;;;;;;;521094;28;1470;-83
2022/06/06 00:00:55;;;;;;;6.15;2.97;;;;;;;;;;519091;28;1592;-83
2022/06/06 00:01:14;;;;;;;5.23;3.10;;;;;;;;;;518685;28;1458;-83
2022/06/06 00:01:29;;;;;;;4.95;2.90;;;;;;;;;;516200;28;1410;-83
2022/06/06 00:01:47;;;;;;;5.23;3.00;;;;;;;;;;516597;28;1626;-83
2022/06/06 00:02:03;;;;;;;5.63;3.10;;;;;;;;;;515325;28;1459;-83
2022/06/06 00:02:18;;;;;;;5.35;2.85;;;;;;;;;;516183;28;1709;-83
2022/06/06 00:02:36;;;;;;;4.37;2.83;;;;;;;;;;517378;28;1597;-83
2022/06/06 00:02:51;;;;;;;4.55;3.05;;;;;;;;;;516272;28;1670;-83
2022/06/06 00:03:07;;;;;;;4.32;3.00;;;;;;;;;;515913;28;1648;-83
2022/06/06 00:03:23;;;;;;;4.90;3.00;;;;;;;;;;515199;28;1526;-83
2022/06/06 00:03:40;;;;;;;5.85;3.10;;;;;;;;;;516993;28;1641;-83
2022/06/06 00:03:55;;;;;;;5.68;3.03;;;;;;;;;;516885;28;1420;-83
2022/06/06 00:04:12;;;;;;;4.93;3.20;;;;;;;;;;514426;28;1599;-83
2022/06/06 00:04:27;;;;;;;5.38;3.20;;;;;;;;;;514462;28;1643;-83
2022/06/06 00:04:43;;;;;;;5.25;3.03;;;;;;;;;;515127;28;1557;-83
2022/06/06 00:04:58;;;;;;;4.50;3.00;;;;;;;;;;514451;28;2210;-83
2022/06/06 00:05:15;;;;;;;4.93;3.15;;;;;;;;;;514882;28;1482;-83
2022/06/06 00:05:31;;;;;;;5.07;3.30;;;;;;;;;;516321;28;1624;-83
2022/06/06 00:05:48;;;;;;;5.40;3.17;;;;;;;;;;516372;28;1463;-83
2022/06/06 00:06:09;;;;;;;5.15;3.35;;;;;;;;;;514400;28;1828;-84
2022/06/06 00:06:25;;;;;;;4.72;3.42;;;;;;;;;;515654;28;1512;-83
2022/06/06 00:06:42;;;;;;;4.90;3.20;;;;;;;;;;518106;28;1688;-84
2022/06/06 00:06:58;;;;;;;4.50;3.10;;;;;;;;;;520586;28;1473;-83
2022/06/06 00:07:14;;;;;;;3.75;3.08;;;;;;;;;;520751;28;1467;-83
2022/06/06 00:07:29;;;;;;;5.33;3.03;;;;;;;;;;521184;28;1678;-83
2022/06/06 00:07:44;;;;;;;5.88;3.10;;;;;;;;;;521084;28;1540;-83
2022/06/06 00:08:00;;;;;;;4.80;3.27;;;;;;;;;;519927;28;1587;-83
2022/06/06 00:08:16;;;;;;;4.78;3.28;;;;;;;;;;520574;28;1493;-83
2022/06/06 00:08:32;;;;;;;5.53;3.30;;;;;;;;;;520903;28;1464;-83
2022/06/06 00:08:48;;;;;;;5.77;3.50;;;;;;;;;;518848;28;1696;-83
2022/06/06 00:09:04;;;;;;;5.25;3.50;;;;;;;;;;516792;28;1798;-83
2022/06/06 00:09:20;;;;;;;5.20;3.50;;;;;;;;;;516905;28;1440;-83
2022/06/06 00:09:35;;;;;;;5.32;3.47;;;;;;;;;;514869;28;1504;-83
2022/06/06 00:09:50;;;;;;;6.00;3.47;;;;;;;;;;515151;28;1412;-83
2022/06/06 00:10:06;;;;;;;5.43;3.57;;;;;;;;;;515906;28;1910;-83
2022/06/06 00:10:22;;;;;;;5.50;3.38;;;;;;;;;;516859;28;1528;-83
2022/06/06 00:10:41;;;;;;;6.27;3.40;;;;;;;;;;515651;28;1503;-83
2022/06/06 00:10:57;;;;;;;4.68;3.50;;;;;;;;;;518139;28;1483;-83
2022/06/06 00:11:12;;;;;;;4.87;3.50;;;;;;;;;;518560;28;1585;-83
2022/06/06 00:11:32;;;;;;;6.05;3.63;;;;;;;;;;517592;28;1428;-83
2022/06/06 00:11:48;;;;;;;6.30;3.78;;;;;;;;;;519070;28;1606;-83
2022/06/06 00:12:04;;;;;;;5.97;3.60;;;;;;;;;;516776;28;1554;-83
2022/06/06 00:12:20;;;;;;;6.20;3.70;;;;;;;;;;514515;28;1477;-83
2022/06/06 00:12:36;;;;;;;8.82;3.75;;;;;;;;;;516666;28;1542;-83
2022/06/06 00:12:51;;;;;;;8.17;3.83;;;;;;;;;;516530;28;1594;-83
2022/06/06 00:13:08;;;;;;;4.40;3.70;;;;;;;;;;515023;28;1460;-83
2022/06/06 00:13:24;;;;;;;3.90;3.50;;;;;;;;;;513847;28;1425;-83
2022/06/06 00:13:42;;;;;;;4.47;3.50;;;;;;;;;;514540;28;1484;-83
2022/06/06 00:13:58;;;;;;;5.30;3.50;;;;;;;;;;515882;28;1566;-83
2022/06/06 00:14:15;;;;;;;4.80;3.40;;;;;;;;;;518140;28;1654;-83
2022/06/06 00:14:31;;;;;;;6.10;3.60;;;;;;;;;;518478;28;1533;-83
2022/06/06 00:14:46;;;;;;;7.65;3.55;;;;;;;;;;518468;28;1636;-83
2022/06/06 00:15:03;;;;;;;7.93;3.38;;;;;;;;;;519555;28;1678;-83
2022/06/06 00:15:18;;;;;;;6.68;3.47;;;;;;;;;;520849;28;1638;-83
2022/06/06 00:15:34;;;;;;;4.87;3.57;;;;;;;;;;520093;28;1456;-83
2022/06/06 00:15:49;;;;;;;5.15;3.85;;;;;;;;;;518669;28;1365;-83
2022/06/06 00:16:05;;;;;;;5.87;3.90;;;;;;;;;;516723;28;1452;-83
2022/06/06 00:16:21;;;;;;;5.63;3.70;;;;;;;;;;516473;28;1625;-83
2022/06/06 00:16:36;;;;;;;5.30;3.70;;;;;;;;;;516525;28;1402;-83
2022/06/06 00:16:52;;;;;;;4.97;3.80;;;;;;;;;;516547;28;1527;-83
2022/06/06 00:17:08;;;;;;;6.72;3.88;;;;;;;;;;516742;28;1445;-83
2022/06/06 00:17:23;;;;;;;7.93;3.70;;;;;;;;;;515098;28;1507;-83
2022/06/06 00:17:39;;;;;;;6.60;3.63;;;;;;;;;;515086;28;1561;-83
2022/06/06 00:17:54;;;;;;;6.03;3.90;;;;;;;;;;515478;28;1527;-83
2022/06/06 00:18:09;;;;;;;6.40;3.97;;;;;;;;;;516737;28;1535;-83
2022/06/06 00:18:25;;;;;;;5.57;3.93;;;;;;;;;;517194;28;1658;-83
2022/06/06 00:18:40;;;;;;;5.67;4.00;;;;;;;;;;519058;28;1459;-83
2022/06/06 00:18:56;;;;;;;6.13;3.95;;;;;;;;;;518738;28;1624;-84
2022/06/06 00:19:11;;;;;;;5.57;3.77;;;;;;;;;;517076;28;1390;-83
2022/06/06 00:19:27;;;;;;;5.90;3.88;;;;;;;;;;517935;28;1506;-83
2022/06/06 00:19:42;;;;;;;5.77;4.20;;;;;;;;;;518759;28;1531;-83
2022/06/06 00:19:58;;;;;;;5.30;4.10;;;;;;;;;;518458;28;1461;-83
2022/06/06 00:20:16;;;;;;;5.55;4.13;;;;;;;;;;519027;28;1573;-83
2022/06/06 00:20:32;;;;;;;6.10;4.13;;;;;;;;;;519271;28;1954;-83
2022/06/06 00:20:47;;;;;;;5.85;4.13;;;;;;;;;;516856;28;1503;-83
2022/06/06 00:21:05;;;;;;;4.93;4.10;;;;;;;;;;517364;28;1499;-83
2022/06/06 00:21:21;;;;;;;6.00;4.03;;;;;;;;;;518861;28;1483;-83
2022/06/06 00:21:37;;;;;;;7.07;3.95;;;;;;;;;;518216;28;1716;-83
2022/06/06 00:21:53;;;;;;;6.13;3.88;;;;;;;;;;519037;28;1596;-83
2022/06/06 00:22:09;;;;;;;5.97;4.03;;;;;;;;;;518689;28;1506;-83
2022/06/06 00:22:24;;;;;;;5.63;4.20;;;;;;;;;;518977;28;1463;-83
2022/06/06 00:22:39;;;;;;;5.32;4.30;;;;;;;;;;519883;28;1514;-83
2022/06/06 00:22:55;;;;;;;5.90;4.40;;;;;;;;;;518997;28;1468;-83
2022/06/06 00:23:10;;;;;;;6.40;4.30;;;;;;;;;;519618;28;2046;-83
2022/06/06 00:23:26;;;;;;;5.75;4.00;;;;;;;;;;518894;28;1467;-83
2022/06/06 00:23:41;;;;;;;5.50;3.90;;;;;;;;;;518887;28;2084;-83
2022/06/06 00:23:59;;;;;;;5.65;3.85;;;;;;;;;;518882;28;1443;-82
2022/06/06 00:24:15;;;;;;;6.40;4.18;;;;;;;;;;516814;28;1601;-83
2022/06/06 00:24:30;;;;;;;6.20;4.28;;;;;;;;;;517041;28;1558;-83
2022/06/06 00:24:46;;;;;;;5.90;4.20;;;;;;;;;;515493;28;1478;-83
2022/06/06 00:25:02;;;;;;;6.75;4.40;;;;;;;;;;517005;28;1468;-83
2022/06/06 00:25:17;;;;;;;7.47;4.40;;;;;;;;;;514790;28;1539;-83
2022/06/06 00:25:33;;;;;;;7.45;4.20;;;;;;;;;;515842;28;1901;-83
2022/06/06 00:25:48;;;;;;;5.87;4.10;;;;;;;;;;515240;28;1357;-83
2022/06/06 00:26:09;;;;;;;5.80;4.15;;;;;;;;;;515377;28;1830;-83
2022/06/06 00:26:27;;;;;;;6.90;4.00;;;;;;;;;;516503;28;1441;-83
2022/06/06 00:26:43;;;;;;;4.65;3.90;;;;;;;;;;517809;28;1464;-83
2022/06/06 00:26:59;;;;;;;6.05;4.10;;;;;;;;;;518500;28;1645;-83
2022/06/06 00:27:14;;;;;;;6.85;4.25;;;;;;;;;;520425;28;1451;-83
2022/06/06 00:27:30;;;;;;;6.43;4.15;;;;;;;;;;520933;28;1489;-83
2022/06/06 00:27:46;;;;;;;6.28;4.07;;;;;;;;;;520158;28;1451;-83
2022/06/06 00:28:01;;;;;;;6.20;4.40;;;;;;;;;;519053;28;1769;-83
2022/06/06 00:28:17;;;;;;;6.40;4.32;;;;;;;;;;516723;28;1550;-83
2022/06/06 00:28:32;;;;;;;5.80;4.17;;;;;;;;;;516953;28;1533;-83
2022/06/06 00:28:49;;;;;;;5.70;4.30;;;;;;;;;;516934;28;1723;-83
2022/06/06 00:29:06;;;;;;;6.28;4.47;;;;;;;;;;514481;28;1440;-83
2022/06/06 00:29:21;;;;;;;6.45;4.25;;;;;;;;;;514586;28;1492;-83
2022/06/06 00:29:37;;;;;;;6.63;4.13;;;;;;;;;;515324;28;1488;-83
2022/06/06 00:29:53;;;;;;;6.50;4.20;;;;;;;;;;516696;28;1491;-83
2022/06/06 00:30:09;;;;;;;6.85;4.30;;;;;;;;;;516182;28;1967;-83
2022/06/06 00:30:24;;;;;;;7.35;4.22;;;;;;;;;;514825;28;1477;-83
2022/06/06 00:30:40;;;;;;;7.60;4.20;;;;;;;;;;515771;28;1393;-83
2022/06/06 00:30:57;;;;;;;6.43;4.22;;;;;;;;;;516546;28;1395;-83
2022/06/06 00:34:54;;;;;;;6.47;4.10;;;;;;;;;;521054;28;1393;-83
2022/06/06 00:35:09;;;;;;;6.20;4.25;;;;;;;;;;520683;28;1663;-83
2022/06/06 00:35:26;;;;;;;5.53;4.18;;;;;;;;;;520837;28;1555;-83
2022/06/06 00:35:42;;;;;;;5.88;4.18;;;;;;;;;;518649;28;1728;-83
2022/06/06 00:36:00;;;;;;;6.53;4.30;;;;;;;;;;517509;28;1646;-83
2022/06/06 00:36:16;;;;;;;6.55;4.30;;;;;;;;;;518119;28;1377;-83
2022/06/06 00:36:33;;;;;;;6.73;4.30;;;;;;;;;;514995;28;1622;-83
2022/06/06 00:36:48;;;;;;;5.38;4.05;;;;;;;;;;513391;28;1455;-83
2022/06/06 00:37:07;;;;;;;4.75;3.97;;;;;;;;;;514478;28;1676;-83
2022/06/06 00:37:30;;;;;;;5.70;4.15;;;;;;;;;;513069;28;1484;-83
2022/06/06 00:37:45;;;;;;;7.13;4.18;;;;;;;;;;515207;28;1518;-83
2022/06/06 00:38:00;;;;;;;8.20;4.33;;;;;;;;;;517341;28;1777;-83
2022/06/06 00:38:16;;;;;;;7.13;4.20;;;;;;;;;;516580;28;2327;-83
2022/06/06 00:38:31;;;;;;;8.10;4.30;;;;;;;;;;514587;28;2169;-83
2022/06/06 00:38:47;;;;;;;7.68;4.30;;;;;;;;;;514579;28;1495;-83
2022/06/06 00:39:04;;;;;;;6.17;4.20;;;;;;;;;;514224;28;1449;-83
2022/06/06 00:39:20;;;;;;;6.30;4.25;;;;;;;;;;513590;28;1521;-83
2022/06/06 00:39:35;;;;;;;5.40;4.10;;;;;;;;;;515000;28;1484;-83
2022/06/06 00:39:51;;;;;;;6.50;4.20;;;;;;;;;;516503;28;1476;-81
2022/06/06 00:40:09;;;;;;;7.55;4.60;;;;;;;;;;514807;28;1477;-83
2022/06/06 00:40:26;;;;;;;6.50;4.60;;;;;;;;;;513598;28;1586;-83
2022/06/06 00:40:48;;;;;;;5.72;4.50;;;;;;;;;;512668;28;1495;-83
2022/06/06 00:41:04;;;;;;;5.45;4.50;;;;;;;;;;512333;28;1584;-83
2022/06/06 00:41:19;;;;;;;5.43;4.50;;;;;;;;;;512385;28;1476;-83
2022/06/06 00:41:43;;;;;;;6.03;4.27;;;;;;;;;;512877;28;1511;-83
2022/06/06 00:41:59;;;;;;;6.72;4.25;;;;;;;;;;513243;28;1493;-83
2022/06/06 00:42:20;;;;;;;6.27;4.53;;;;;;;;;;513244;28;1604;-83
2022/06/06 00:42:39;;;;;;;6.10;4.60;;;;;;;;;;515111;28;1488;-83
2022/06/06 00:42:54;;;;;;;6.63;4.55;;;;;;;;;;517140;28;1626;-83
2022/06/06 00:43:09;;;;;;;7.10;4.40;;;;;;;;;;516959;28;1642;-83
2022/06/06 00:43:25;;;;;;;6.97;4.38;;;;;;;;;;518603;28;1360;-83
2022/06/06 00:43:41;;;;;;;7.93;4.43;;;;;;;;;;518738;28;1927;-83
2022/06/06 00:44:03;;;;;;;9.20;4.70;;;;;;;;;;518602;28;1625;-83
2022/06/06 00:44:37;;;;;;;9.73;4.88;;;;;;;;;;520770;28;1482;-83
2022/06/06 00:45:19;;;;;;;6.88;4.50;;;;;;;;;;518193;28;1490;-83
2022/06/06 00:45:37;;;;;;;7.72;4.65;;;;;;;;;;518569;28;1368;-83
2022/06/06 00:45:56;;;;;;;6.57;4.50;;;;;;;;;;518705;28;1541;-83
2022/06/06 00:46:11;;;;;;;7.00;4.60;;;;;;;;;;518849;28;1558;-83
2022/06/06 00:46:28;;;;;;;5.75;4.60;;;;;;;;;;518764;28;1566;-83
2022/06/06 00:47:18;;;;;;;5.60;4.65;;;;;;;;;;516534;28;1534;-83
2022/06/06 00:47:36;;;;;;;8.50;4.63;;;;;;;;;;511663;28;1704;-83
2022/06/06 00:47:57;;;;;;;6.43;4.50;;;;;;;;;;517630;28;2058;-83
2022/06/06 00:48:13;;;;;;;6.63;4.40;;;;;;;;;;518948;28;1514;-83
2022/06/06 00:48:40;;;;;;;7.73;4.57;;;;;;;;;;518369;28;1597;-83
2022/06/06 00:48:55;;;;;;;7.43;4.50;;;;;;;;;;521020;28;1410;-83
2022/06/06 00:49:17;;;;;;;6.90;4.70;;;;;;;;;;519056;28;1556;-83
2022/06/06 00:49:44;;;;;;;6.15;4.70;;;;;;;;;;518791;28;1454;-83
2022/06/06 00:50:03;;;;;;;7.70;4.88;;;;;;;;;;518598;28;1599;-83
2022/06/06 00:50:33;;;;;;;5.85;4.57;;;;;;;;;;518834;28;1950;-83
2022/06/06 00:51:03;;;;;;;7.82;4.88;;;;;;;;;;516738;28;1390;-83
2022/06/06 00:51:18;;;;;;;7.78;4.93;;;;;;;;;;517289;28;1500;-83
2022/06/06 00:51:34;;;;;;;6.97;4.97;;;;;;;;;;518994;28;1442;-83
2022/06/06 00:51:50;;;;;;;10.68;5.10;;;;;;;;;;520231;28;1588;-83
2022/06/06 00:52:12;;;;;;;10.67;5.00;;;;;;;;;;518404;28;1499;-83
2022/06/06 00:52:33;;;;;;;6.60;4.80;;;;;;;;;;516578;28;1595;-83
2022/06/06 00:52:52;;;;;;;7.95;4.90;;;;;;;;;;514317;28;1559;-83
2022/06/06 00:53:09;;;;;;;9.73;4.90;;;;;;;;;;513333;28;1633;-83
2022/06/06 00:53:51;;;;;;;8.32;5.00;;;;;;;;;;514643;28;1523;-83
2022/06/06 00:54:07;;;;;;;6.83;4.90;;;;;;;;;;516701;28;1507;-83
2022/06/06 00:54:23;;;;;;;6.00;5.00;;;;;;;;;;516065;28;1790;-83
2022/06/06 00:54:40;;;;;;;6.13;5.00;;;;;;;;;;516933;28;1558;-83
2022/06/06 00:55:00;;;;;;;6.45;4.85;;;;;;;;;;518680;28;1472;-83
2022/06/06 00:55:21;;;;;;;6.95;4.93;;;;;;;;;;520996;28;1489;-83
2022/06/06 00:55:42;;;;;;;6.85;4.97;;;;;;;;;;519268;28;1427;-83
2022/06/06 00:56:27;;;;;;;6.80;5.00;;;;;;;;;;519337;28;1626;-83
2022/06/06 00:56:55;;;;;;;6.97;4.93;;;;;;;;;;518150;28;1674;-83
2022/06/06 00:57:16;;;;;;;8.25;5.05;;;;;;;;;;521161;28;1326;-83
2022/06/06 00:57:34;;;;;;;5.68;5.03;;;;;;;;;;522317;28;1600;-83
2022/06/06 00:57:58;;;;;;;5.93;5.30;;;;;;;;;;522050;28;1418;-83
2022/06/06 00:58:17;;;;;;;6.45;5.05;;;;;;;;;;520121;28;1537;-83
2022/06/06 00:58:34;;;;;;;6.78;4.85;;;;;;;;;;518612;28;1461;-83
2022/06/06 00:58:55;;;;;;;6.93;5.10;;;;;;;;;;518652;28;1552;-83
2022/06/06 00:59:14;;;;;;;7.50;5.32;;;;;;;;;;518809;28;1523;-83
2022/06/06 00:59:34;;;;;;;7.63;5.30;;;;;;;;;;518848;28;1769;-83
2022/06/06 00:59:52;;;;;;;7.85;5.22;;;;;;;;;;519424;28;1550;-83
2022/06/06 01:00:11;;;;;;;8.55;5.55;;;;;;;;;;520575;28;1691;-83
2022/06/06 01:00:27;;;;;;;9.15;5.60;;;;;;;;;;521071;28;1759;-83
2022/06/06 01:00:43;;;;;;;10.43;5.50;;;;;;;;;;521258;28;1397;-83
2022/06/06 01:01:01;;;;;;;10.32;5.35;;;;;;;;;;521304;28;1708;-83
2022/06/06 01:01:17;;;;;;;8.52;5.22;;;;;;;;;;520833;28;1466;-83
2022/06/06 01:01:34;;;;;;;9.77;5.43;;;;;;;;;;523100;28;1436;-83
2022/06/06 01:01:50;;;;;;;8.90;5.43;;;;;;;;;;521442;28;1508;-83
2022/06/06 01:02:13;;;;;;;10.40;5.78;;;;;;;;;;519847;28;1418;-83
2022/06/06 01:02:28;;;;;;;8.82;5.68;;;;;;;;;;519726;28;1573;-83
2022/06/06 01:02:47;;;;;;;6.45;5.28;;;;;;;;;;520048;28;1468;-83
2022/06/06 01:03:05;;;;;;;8.95;5.60;;;;;;;;;;517919;28;1637;-83
2022/06/06 01:03:24;;;;;;;10.80;5.63;;;;;;;;;;517997;28;1834;-83
2022/06/06 01:03:41;;;;;;;8.57;5.45;;;;;;;;;;517597;28;1445;-83
2022/06/06 01:03:58;;;;;;;7.63;5.60;;;;;;;;;;518235;28;1500;-83
2022/06/06 01:04:16;;;;;;;7.45;5.65;;;;;;;;;;518725;28;1468;-83
2022/06/06 01:04:33;;;;;;;7.93;5.65;;;;;;;;;;518621;28;1424;-83
2022/06/06 01:04:48;;;;;;;7.30;5.40;;;;;;;;;;518819;28;1530;-83
2022/06/06 01:05:05;;;;;;;6.67;5.30;;;;;;;;;;520909;28;1711;-83
2022/06/06 01:05:22;;;;;;;7.90;5.45;;;;;;;;;;520561;28;1443;-83
2022/06/06 01:05:40;;;;;;;8.50;5.40;;;;;;;;;;521028;28;1459;-83
2022/06/06 01:05:57;;;;;;;7.68;5.45;;;;;;;;;;520559;28;1442;-83
2022/06/06 01:06:16;;;;;;;6.85;5.50;;;;;;;;;;519394;28;1672;-83
2022/06/06 01:06:33;;;;;;;7.47;5.40;;;;;;;;;;519102;28;1637;-83
2022/06/06 01:06:50;;;;;;;8.10;5.60;;;;;;;;;;518164;28;1491;-83
2022/06/06 01:07:08;;;;;;;8.23;5.60;;;;;;;;;;520850;28;1511;-83
2022/06/06 01:07:23;;;;;;;8.40;5.72;;;;;;;;;;521504;28;1426;-83
2022/06/06 01:07:38;;;;;;;6.53;5.47;;;;;;;;;;519035;28;2327;-83
2022/06/06 01:07:54;;;;;;;6.60;5.43;;;;;;;;;;519341;28;1382;-83
2022/06/06 01:08:11;;;;;;;7.80;5.77;;;;;;;;;;518801;28;1482;-83
2022/06/06 01:08:27;;;;;;;9.80;5.63;;;;;;;;;;518990;28;1453;-83
2022/06/06 01:08:46;;;;;;;10.55;5.60;;;;;;;;;;520000;28;1525;-83
2022/06/06 01:09:02;;;;;;;9.82;5.90;;;;;;;;;;520782;28;1616;-83
2022/06/06 01:09:20;;;;;;;9.05;6.00;;;;;;;;;;520931;28;1609;-83
2022/06/06 01:09:38;;;;;;;8.10;5.85;;;;;;;;;;522257;28;1599;-82
2022/06/06 01:09:53;;;;;;;7.78;5.55;;;;;;;;;;520519;28;1457;-83
2022/06/06 01:10:09;;;;;;;8.57;5.70;;;;;;;;;;521222;28;1906;-83
2022/06/06 01:10:24;;;;;;;9.32;6.00;;;;;;;;;;520739;28;1482;-83
2022/06/06 01:10:40;;;;;;;9.77;5.97;;;;;;;;;;520842;28;1569;-83
2022/06/06 01:10:56;;;;;;;8.97;5.70;;;;;;;;;;520995;28;1638;-84
2022/06/06 01:11:11;;;;;;;7.53;5.70;;;;;;;;;;519629;28;1622;-83
2022/06/06 01:11:27;;;;;;;9.10;6.17;;;;;;;;;;516860;28;1487;-83
2022/06/06 01:11:47;;;;;;;10.53;6.17;;;;;;;;;;516304;28;1441;-83
2022/06/06 01:12:08;;;;;;;8.13;5.60;;;;;;;;;;515198;28;1583;-83
2022/06/06 01:12:24;;;;;;;7.15;5.68;;;;;;;;;;516947;28;1550;-83
2022/06/06 01:12:39;;;;;;;8.13;6.03;;;;;;;;;;517480;28;1584;-83
2022/06/06 01:12:56;;;;;;;9.07;6.23;;;;;;;;;;517840;28;1495;-83
2022/06/06 01:13:14;;;;;;;7.28;6.00;;;;;;;;;;516397;28;1527;-83
2022/06/06 01:13:32;;;;;;;7.55;5.80;;;;;;;;;;514438;28;1573;-83
2022/06/06 01:13:48;;;;;;;7.70;5.78;;;;;;;;;;515350;28;1522;-83
2022/06/06 01:14:04;;;;;;;7.70;5.65;;;;;;;;;;515417;28;1467;-83
2022/06/06 01:14:23;;;;;;;7.65;5.65;;;;;;;;;;516586;28;1679;-83
2022/06/06 01:14:46;;;;;;;8.27;5.50;;;;;;;;;;515725;28;1869;-82
2022/06/06 01:15:06;;;;;;;10.00;5.80;;;;;;;;;;514616;28;1412;-83
2022/06/06 01:15:27;;;;;;;9.98;5.80;;;;;;;;;;514769;28;1524;-83
2022/06/06 01:16:22;;;;;;;8.63;6.05;;;;;;;;;;514923;28;1543;-83
2022/06/06 01:16:49;;;;;;;7.90;5.88;;;;;;;;;;518901;28;1432;-83
2022/06/06 01:17:16;;;;;;;8.23;5.95;;;;;;;;;;520350;28;1600;-83
2022/06/06 01:17:37;;;;;;;7.85;5.50;;;;;;;;;;521534;28;1462;-83
2022/06/06 01:18:10;;;;;;;7.72;5.70;;;;;;;;;;523219;28;1453;-83
2022/06/06 01:18:49;;;;;;;9.52;6.28;;;;;;;;;;522640;28;1564;-83
2022/06/06 01:19:44;;;;;;;9.02;6.30;;;;;;;;;;520828;28;1686;-84
2022/06/06 01:20:02;;;;;;;9.90;6.13;;;;;;;;;;520227;28;1600;-84
2022/06/06 01:20:17;;;;;;;8.95;6.30;;;;;;;;;;517728;28;1411;-84
2022/06/06 01:20:53;;;;;;;8.23;6.30;;;;;;;;;;518829;28;1514;-84
2022/06/06 01:21:34;;;;;;;8.20;5.80;;;;;;;;;;520563;28;1725;-84
2022/06/06 01:22:23;;;;;;;8.18;6.07;;;;;;;;;;520414;28;1450;-84
2022/06/06 01:23:03;;;;;;;9.68;6.10;;;;;;;;;;520790;28;1635;-84
2022/06/06 01:23:56;;;;;;;10.18;6.40;;;;;;;;;;520710;28;1466;-84
2022/06/06 01:24:36;;;;;;;11.10;6.47;;;;;;;;;;520114;28;2112;-83
2022/06/06 01:25:01;;;;;;;9.63;6.15;;;;;;;;;;519938;28;1661;-84
2022/06/06 01:25:44;;;;;;;9.65;5.88;;;;;;;;;;517500;28;1743;-84
2022/06/06 01:26:15;;;;;;;8.43;5.85;;;;;;;;;;518740;28;1506;-83
2022/06/06 01:26:58;;;;;;;8.10;5.93;;;;;;;;;;520853;28;1695;-83
2022/06/06 01:27:42;;;;;;;9.30;6.22;;;;;;;;;;522096;28;1876;-83
2022/06/06 01:28:00;;;;;;;7.22;5.85;;;;;;;;;;522350;28;1601;-83
2022/06/06 01:28:21;;;;;;;7.25;5.97;;;;;;;;;;520442;28;1519;-83
2022/06/06 01:28:54;;;;;;;7.95;6.10;;;;;;;;;;520587;28;1375;-84
2022/06/06 01:29:15;;;;;;;7.93;6.22;;;;;;;;;;520517;28;1482;-83
2022/06/06 01:29:36;;;;;;;9.07;6.07;;;;;;;;;;520983;28;1596;-83
2022/06/06 01:29:58;;;;;;;7.60;5.90;;;;;;;;;;520429;28;1429;-84
2022/06/06 01:30:18;;;;;;;7.78;5.90;;;;;;;;;;521452;28;1901;-84
2022/06/06 01:30:41;;;;;;;9.05;5.93;;;;;;;;;;521087;28;1475;-83
2022/06/06 01:31:00;;;;;;;7.97;5.90;;;;;;;;;;519092;28;1592;-83
2022/06/06 01:31:22;;;;;;;8.50;6.05;;;;;;;;;;519378;28;1694;-83
2022/06/06 01:31:55;;;;;;;8.20;6.05;;;;;;;;;;516428;28;1475;-83
2022/06/06 01:32:15;;;;;;;7.47;6.07;;;;;;;;;;518713;28;1430;-84
2022/06/06 01:32:37;;;;;;;8.82;5.90;;;;;;;;;;518496;28;1630;-83
2022/06/06 01:32:56;;;;;;;9.40;6.18;;;;;;;;;;516130;28;1787;-83
2022/06/06 01:33:14;;;;;;;10.40;6.55;;;;;;;;;;516659;28;1429;-84
2022/06/06 01:33:29;;;;;;;10.52;6.60;;;;;;;;;;514986;28;1471;-84
2022/06/06 01:33:49;;;;;;;10.37;6.30;;;;;;;;;;514985;28;1364;-84
2022/06/06 01:34:07;;;;;;;9.45;6.15;;;;;;;;;;515105;28;1463;-84
2022/06/06 01:34:28;;;;;;;8.90;6.20;;;;;;;;;;515670;28;1439;-84
2022/06/06 01:34:44;;;;;;;8.23;6.28;;;;;;;;;;514730;28;1735;-84
2022/06/06 01:34:59;;;;;;;9.23;6.45;;;;;;;;;;515040;28;1540;-83
2022/06/06 01:35:33;;;;;;;9.33;6.60;;;;;;;;;;514743;28;1617;-84
2022/06/06 01:35:52;;;;;;;7.90;6.22;;;;;;;;;;516075;28;1546;-84
2022/06/06 01:36:08;;;;;;;10.02;6.38;;;;;;;;;;518418;28;1467;-84
2022/06/06 01:36:27;;;;;;;10.18;6.40;;;;;;;;;;517575;28;1543;-84
2022/06/06 01:36:51;;;;;;;8.45;6.05;;;;;;;;;;519033;28;1528;-83
2022/06/06 01:37:35;;;;;;;7.72;6.00;;;;;;;;;;521270;28;1518;-83
2022/06/06 01:37:50;;;;;;;8.82;6.38;;;;;;;;;;521609;28;2075;-83
2022/06/06 01:38:07;;;;;;;8.03;6.17;;;;;;;;;;521610;28;1583;-84
2022/06/06 01:38:23;;;;;;;7.90;6.07;;;;;;;;;;521976;28;1513;-84
2022/06/06 01:38:40;;;;;;;8.45;6.18;;;;;;;;;;519884;28;1540;-84
2022/06/06 01:38:58;;;;;;;8.13;6.10;;;;;;;;;;520372;28;1581;-84
2022/06/06 01:39:14;;;;;;;9.30;6.47;;;;;;;;;;519619;28;1506;-84
2022/06/06 01:39:31;;;;;;;8.77;6.43;;;;;;;;;;518310;28;1789;-84
2022/06/06 01:39:47;;;;;;;9.05;6.20;;;;;;;;;;514565;28;1620;-84
2022/06/06 01:40:07;;;;;;;10.90;6.50;;;;;;;;;;515012;28;1565;-84
2022/06/06 01:40:25;;;;;;;8.43;6.00;;;;;;;;;;514827;28;1825;-83
2022/06/06 01:41:09;;;;;;;8.95;5.95;;;;;;;;;;515678;28;1518;-84
2022/06/06 01:41:59;;;;;;;10.50;6.40;;;;;;;;;;519742;28;1664;-84
2022/06/06 01:42:19;;;;;;;8.40;6.53;;;;;;;;;;515066;28;1678;-84
2022/06/06 01:42:48;;;;;;;8.38;6.40;;;;;;;;;;517034;28;1805;-84
2022/06/06 01:43:13;;;;;;;10.30;6.70;;;;;;;;;;520292;28;1737;-84
2022/06/06 01:43:36;;;;;;;10.20;6.43;;;;;;;;;;520687;28;1659;-84
2022/06/06 01:44:00;;;;;;;9.32;6.70;;;;;;;;;;521017;28;1499;-84
2022/06/06 01:44:57;;;;;;;9.50;6.35;;;;;;;;;;521104;28;1599;-82
2022/06/06 01:45:41;;;;;;;8.43;6.50;;;;;;;;;;519876;28;1732;-82
2022/06/06 01:46:02;;;;;;;9.95;6.45;;;;;;;;;;511973;28;1529;-82
2022/06/06 01:46:30;;;;;;;9.23;6.43;;;;;;;;;;510425;28;1724;-82
2022/06/06 01:46:46;;;;;;;9.20;6.75;;;;;;;;;;515974;28;1643;-81
2022/06/06 01:47:05;;;;;;;9.35;6.65;;;;;;;;;;520202;28;1510;-83
2022/06/06 01:47:44;;;;;;;8.88;6.18;;;;;;;;;;520727;28;1463;-83
2022/06/06 01:48:10;;;;;;;9.65;6.53;;;;;;;;;;518102;28;1475;-83
2022/06/06 01:48:30;;;;;;;10.13;6.47;;;;;;;;;;518460;28;1593;-82
2022/06/06 01:48:49;;;;;;;8.68;6.70;;;;;;;;;;517020;28;1436;-83
2022/06/06 01:49:09;;;;;;;8.80;6.45;;;;;;;;;;517353;28;1433;-82
2022/06/06 01:49:26;;;;;;;8.63;6.40;;;;;;;;;;518791;28;1440;-82
2022/06/06 01:49:43;;;;;;;7.70;6.20;;;;;;;;;;519157;28;1514;-82
2022/06/06 01:49:58;;;;;;;7.63;6.32;;;;;;;;;;518689;28;1522;-83
2022/06/06 01:50:14;;;;;;;9.60;6.70;;;;;;;;;;516036;28;1942;-83
2022/06/06 01:50:31;;;;;;;10.30;6.60;;;;;;;;;;514763;28;1671;-83
2022/06/06 01:50:46;;;;;;;9.13;6.45;;;;;;;;;;514354;28;1806;-83
2022/06/06 01:51:14;;;;;;;9.10;6.43;;;;;;;;;;514602;28;1618;-83
2022/06/06 01:51:31;;;;;;;9.60;6.72;;;;;;;;;;514551;28;1608;-83
2022/06/06 01:52:05;;;;;;;10.25;6.80;;;;;;;;;;514689;28;1464;-82
2022/06/06 01:52:21;;;;;;;11.48;6.75;;;;;;;;;;517470;28;1483;-83
2022/06/06 01:52:56;;;;;;;11.32;6.40;;;;;;;;;;519206;28;1542;-83
2022/06/06 01:53:15;;;;;;;8.05;6.43;;;;;;;;;;518759;28;1555;-82
2022/06/06 01:53:36;;;;;;;8.93;6.70;;;;;;;;;;521024;28;1494;-84
2022/06/06 01:53:52;;;;;;;8.75;6.78;;;;;;;;;;518925;28;1698;-82
2022/06/06 01:54:08;;;;;;;8.57;6.75;;;;;;;;;;519348;28;1498;-82
2022/06/06 01:54:23;;;;;;;9.25;6.57;;;;;;;;;;516496;28;1780;-82
2022/06/06 01:54:40;;;;;;;10.27;6.30;;;;;;;;;;514231;28;1332;-82
2022/06/06 01:54:57;;;;;;;8.85;6.28;;;;;;;;;;510805;28;1501;-82
2022/06/06 01:55:12;;;;;;;9.27;6.53;;;;;;;;;;512352;28;1639;-82
2022/06/06 01:55:30;;;;;;;9.80;6.60;;;;;;;;;;512971;28;1714;-82
2022/06/06 01:55:48;;;;;;;10.13;6.72;;;;;;;;;;516122;28;1721;-82
2022/06/06 01:56:05;;;;;;;10.85;6.68;;;;;;;;;;515481;28;1445;-82
2022/06/06 01:56:28;;;;;;;10.10;6.60;;;;;;;;;;513928;28;1602;-82
2022/06/06 01:56:43;;;;;;;10.13;6.53;;;;;;;;;;516637;28;1564;-83
2022/06/06 01:57:00;;;;;;;10.38;6.40;;;;;;;;;;518587;28;1449;-83
2022/06/06 01:57:16;;;;;;;11.45;6.50;;;;;;;;;;516611;28;1578;-83
2022/06/06 01:57:32;;;;;;;9.38;6.57;;;;;;;;;;517077;28;1368;-83
2022/06/06 01:57:49;;;;;;;8.33;6.77;;;;;;;;;;516833;28;1742;-83
2022/06/06 01:58:14;;;;;;;9.60;6.70;;;;;;;;;;516223;28;1446;-83
2022/06/06 01:58:31;;;;;;;10.80;6.90;;;;;;;;;;518281;28;1583;-83
2022/06/06 01:58:47;;;;;;;9.07;6.50;;;;;;;;;;515145;28;1534;-83
2022/06/06 01:59:03;;;;;;;10.25;6.75;;;;;;;;;;515782;28;1746;-83
2022/06/06 01:59:18;;;;;;;9.52;6.97;;;;;;;;;;513130;28;1501;-83
2022/06/06 01:59:34;;;;;;;8.10;6.80;;;;;;;;;;514410;28;1508;-82
2022/06/06 01:59:51;;;;;;;8.07;6.68;;;;;;;;;;516846;28;1590;-83
2022/06/06 02:00:07;;;;;;;9.50;6.57;;;;;;;;;;516791;28;1487;-83
2022/06/06 02:00:24;;;;;;;10.65;6.80;;;;;;;;;;516843;28;1472;-83
2022/06/06 02:00:40;;;;;;;9.40;6.75;;;;;;;;;;513848;28;1617;-83
2022/06/06 02:00:56;;;;;;;9.50;6.80;;;;;;;;;;515041;28;1508;-83
2022/06/06 02:01:11;;;;;;;11.00;6.93;;;;;;;;;;516330;28;1928;-83
2022/06/06 02:01:27;;;;;;;11.07;6.83;;;;;;;;;;516914;28;1475;-83
2022/06/06 02:01:42;;;;;;;9.60;6.80;;;;;;;;;;517931;28;1452;-83
2022/06/06 02:01:57;;;;;;;9.77;6.63;;;;;;;;;;517224;28;1432;-83
2022/06/06 02:02:13;;;;;;;9.10;6.30;;;;;;;;;;518658;28;1663;-83
2022/06/06 02:02:28;;;;;;;9.07;6.43;;;;;;;;;;519099;28;1434;-83
2022/06/06 02:02:44;;;;;;;10.40;6.60;;;;;;;;;;518741;28;1526;-83
2022/06/06 02:03:00;;;;;;;10.35;6.80;;;;;;;;;;518923;28;1638;-82
2022/06/06 02:03:16;;;;;;;9.63;6.90;;;;;;;;;;518876;28;1559;-82
2022/06/06 02:03:33;;;;;;;9.00;6.77;;;;;;;;;;520046;28;1592;-83
2022/06/06 02:03:48;;;;;;;10.48;7.25;;;;;;;;;;518964;28;1383;-83
2022/06/06 02:04:03;;;;;;;10.30;7.28;;;;;;;;;;517405;28;1556;-82